sensor_id;sensor_type;location;lat;lon;timestamp;temperature;humidity
18141;DHT22;9196;49.194;12.526;2023-08-08T00:01:49;12.10;99.90
18141;DHT22;9196;49.194;12.526;2023-08-08T00:04:16;12.10;99.90
18141;DHT22;9196;49.194;12.526;2023-08-08T00:06:43;11.90;99.90
18141;DHT22;9196;49.194;12.526;2023-08-08T00:09:11;11.90;99.90
18141;DHT22;9196;49.194;12.526;2023-08-08T00:11:39;11.80;99.90
18141;DHT22;9196;49.194;12.526;2023-08-08T00:14:05;11.80;99.90
18141;DHT22;9196;49.194;12.526;2023-08-08T00:16:32;11.80;99.90
18141;DHT22;9196;49.194;12.526;2023-08-08T00:18:59;11.70;99.90
18141;DHT22;9196;49.194;12.526;2023-08-08T00:21:26;11.70;99.90
18141;DHT22;9196;49.194;12.526;2023-08-08T00:23:52;11.60;99.90
18141;DHT22;9196;49.194;12.526;2023-08-08T00:26:21;11.60;99.90
18141;DHT22;9196;49.194;12.526;2023-08-08T00:28:47;11.50;99.90
18141;DHT22;9196;49.194;12.526;2023-08-08T00:31:14;11.60;99.90
18141;DHT22;9196;49.194;12.526;2023-08-08T00:33:43;11.60;99.90
18141;DHT22;9196;49.194;12.526;2023-08-08T00:36:09;11.60;99.90
18141;DHT22;9196;49.194;12.526;2023-08-08T00:38:36;11.60;99.90
18141;DHT22;9196;49.194;12.526;2023-08-08T00:41:03;11.60;99.90
18141;DHT22;9196;49.194;12.526;2023-08-08T00:43:32;11.60;99.90
18141;DHT22;9196;49.194;12.526;2023-08-08T00:45:59;11.60;99.90
18141;DHT22;9196;49.194;12.526;2023-08-08T00:48:26;11.60;99.90
18141;DHT22;9196;49.194;12.526;2023-08-08T00:50:53;11.50;99.90
18141;DHT22;9196;49.194;12.526;2023-08-08T00:53:20;11.50;99.90
18141;DHT22;9196;49.194;12.526;2023-08-08T00:55:48;11.50;99.90
18141;DHT22;9196;49.194;12.526;2023-08-08T00:58:15;11.50;99.90
18141;DHT22;9196;49.194;12.526;2023-08-08T01:00:44;11.50;99.90
18141;DHT22;9196;49.194;12.526;2023-08-08T01:03:11;11.50;99.90
18141;DHT22;9196;49.194;12.526;2023-08-08T01:05:43;11.60;99.90
18141;DHT22;9196;49.194;12.526;2023-08-08T01:08:16;11.60;99.90
18141;DHT22;9196;49.194;12.526;2023-08-08T01:10:45;11.60;99.90
18141;DHT22;9196;49.194;12.526;2023-08-08T01:13:14;11.60;99.90
18141;DHT22;9196;49.194;12.526;2023-08-08T01:15:45;11.60;99.90
18141;DHT22;9196;49.194;12.526;2023-08-08T01:18:14;11.70;99.90
18141;DHT22;9196;49.194;12.526;2023-08-08T01:20:43;11.70;99.90
18141;DHT22;9196;49.194;12.526;2023-08-08T01:23:14;11.80;99.90
18141;DHT22;9196;49.194;12.526;2023-08-08T01:25:44;11.90;99.90
18141;DHT22;9196;49.194;12.526;2023-08-08T01:28:11;12.00;99.90
18141;DHT22;9196;49.194;12.526;2023-08-08T01:30:38;12.10;99.90
18141;DHT22;9196;49.194;12.526;2023-08-08T01:33:05;12.10;99.90
18141;DHT22;9196;49.194;12.526;2023-08-08T01:35:38;12.10;99.90
18141;DHT22;9196;49.194;12.526;2023-08-08T01:38:11;12.20;99.90
18141;DHT22;9196;49.194;12.526;2023-08-08T01:40:44;12.10;99.90
18141;DHT22;9196;49.194;12.526;2023-08-08T01:43:12;12.10;99.90
18141;DHT22;9196;49.194;12.526;2023-08-08T01:45:40;12.10;99.90
18141;DHT22;9196;49.194;12.526;2023-08-08T01:48:09;12.10;99.90
18141;DHT22;9196;49.194;12.526;2023-08-08T01:50:36;12.10;99.90
18141;DHT22;9196;49.194;12.526;2023-08-08T01:53:04;12.10;99.90
18141;DHT22;9196;49.194;12.526;2023-08-08T01:55:31;12.10;99.90
18141;DHT22;9196;49.194;12.526;2023-08-08T01:57:59;12.20;99.90
18141;DHT22;9196;49.194;12.526;2023-08-08T02:00:26;12.20;99.90
18141;DHT22;9196;49.194;12.526;2023-08-08T02:02:53;12.20;99.90
18141;DHT22;9196;49.194;12.526;2023-08-08T02:05:20;12.20;99.90
18141;DHT22;9196;49.194;12.526;2023-08-08T02:07:46;12.20;99.90
18141;DHT22;9196;49.194;12.526;2023-08-08T02:10:13;12.20;99.90
18141;DHT22;9196;49.194;12.526;2023-08-08T02:12:40;12.30;99.90
18141;DHT22;9196;49.194;12.526;2023-08-08T02:15:08;12.30;99.90
18141;DHT22;9196;49.194;12.526;2023-08-08T02:17:38;12.30;99.90
18141;DHT22;9196;49.194;12.526;2023-08-08T02:20:06;12.30;99.90
18141;DHT22;9196;49.194;12.526;2023-08-08T02:22:33;12.30;99.90
18141;DHT22;9196;49.194;12.526;2023-08-08T02:25:00;12.30;99.90
18141;DHT22;9196;49.194;12.526;2023-08-08T02:27:27;12.30;99.90
18141;DHT22;9196;49.194;12.526;2023-08-08T02:29:53;12.30;99.90
18141;DHT22;9196;49.194;12.526;2023-08-08T02:32:22;12.30;99.90
18141;DHT22;9196;49.194;12.526;2023-08-08T02:34:49;12.20;99.90
18141;DHT22;9196;49.194;12.526;2023-08-08T02:37:15;12.20;99.90
18141;DHT22;9196;49.194;12.526;2023-08-08T02:39:43;12.20;99.90
18141;DHT22;9196;49.194;12.526;2023-08-08T02:42:10;12.20;99.90
18141;DHT22;9196;49.194;12.526;2023-08-08T02:44:37;12.20;99.90
18141;DHT22;9196;49.194;12.526;2023-08-08T02:47:04;12.20;99.90
18141;DHT22;9196;49.194;12.526;2023-08-08T02:49:32;12.20;99.90
18141;DHT22;9196;49.194;12.526;2023-08-08T02:51:59;12.20;99.90
18141;DHT22;9196;49.194;12.526;2023-08-08T02:54:26;12.20;99.90
18141;DHT22;9196;49.194;12.526;2023-08-08T02:56:53;12.20;99.90
18141;DHT22;9196;49.194;12.526;2023-08-08T02:59:20;12.20;99.90
18141;DHT22;9196;49.194;12.526;2023-08-08T03:01:46;12.30;99.90
18141;DHT22;9196;49.194;12.526;2023-08-08T03:04:14;12.20;99.90
18141;DHT22;9196;49.194;12.526;2023-08-08T03:06:42;12.20;99.90
18141;DHT22;9196;49.194;12.526;2023-08-08T03:09:09;12.20;99.90
18141;DHT22;9196;49.194;12.526;2023-08-08T03:11:36;12.20;99.90
18141;DHT22;9196;49.194;12.526;2023-08-08T03:14:07;12.30;99.90
18141;DHT22;9196;49.194;12.526;2023-08-08T03:16:33;12.30;99.90
18141;DHT22;9196;49.194;12.526;2023-08-08T03:19:00;12.30;99.90
18141;DHT22;9196;49.194;12.526;2023-08-08T03:21:27;12.30;99.90
18141;DHT22;9196;49.194;12.526;2023-08-08T03:23:56;12.30;99.90
18141;DHT22;9196;49.194;12.526;2023-08-08T03:26:23;12.30;99.90
18141;DHT22;9196;49.194;12.526;2023-08-08T03:28:50;12.40;99.90
18141;DHT22;9196;49.194;12.526;2023-08-08T03:31:19;12.30;99.90
18141;DHT22;9196;49.194;12.526;2023-08-08T03:33:45;12.20;99.90
18141;DHT22;9196;49.194;12.526;2023-08-08T03:36:13;12.20;99.90
18141;DHT22;9196;49.194;12.526;2023-08-08T03:38:40;12.30;99.90
18141;DHT22;9196;49.194;12.526;2023-08-08T03:41:11;12.30;99.90
18141;DHT22;9196;49.194;12.526;2023-08-08T03:43:39;12.30;99.90
18141;DHT22;9196;49.194;12.526;2023-08-08T03:46:07;12.30;99.90
18141;DHT22;9196;49.194;12.526;2023-08-08T03:48:34;12.30;99.90
18141;DHT22;9196;49.194;12.526;2023-08-08T03:51:01;12.30;99.90
18141;DHT22;9196;49.194;12.526;2023-08-08T03:53:28;12.30;99.90
18141;DHT22;9196;49.194;12.526;2023-08-08T03:55:55;12.20;99.90
18141;DHT22;9196;49.194;12.526;2023-08-08T03:58:23;12.20;99.90
18141;DHT22;9196;49.194;12.526;2023-08-08T04:00:50;12.20;99.90
18141;DHT22;9196;49.194;12.526;2023-08-08T04:03:18;12.20;99.90
18141;DHT22;9196;49.194;12.526;2023-08-08T04:05:46;12.20;99.90
18141;DHT22;9196;49.194;12.526;2023-08-08T04:08:13;12.10;99.90
18141;DHT22;9196;49.194;12.526;2023-08-08T04:10:40;12.20;99.90
18141;DHT22;9196;49.194;12.526;2023-08-08T04:13:07;12.20;99.90
18141;DHT22;9196;49.194;12.526;2023-08-08T04:15:35;12.20;99.90
18141;DHT22;9196;49.194;12.526;2023-08-08T04:18:01;12.20;99.90
18141;DHT22;9196;49.194;12.526;2023-08-08T04:20:28;12.20;99.90
18141;DHT22;9196;49.194;12.526;2023-08-08T04:22:55;12.30;99.90
18141;DHT22;9196;49.194;12.526;2023-08-08T04:25:22;12.30;99.90
18141;DHT22;9196;49.194;12.526;2023-08-08T04:27:49;12.30;99.90
18141;DHT22;9196;49.194;12.526;2023-08-08T04:30:16;12.30;99.90
18141;DHT22;9196;49.194;12.526;2023-08-08T04:32:44;12.30;99.90
18141;DHT22;9196;49.194;12.526;2023-08-08T04:35:11;12.40;99.90
18141;DHT22;9196;49.194;12.526;2023-08-08T04:37:38;12.40;99.90
18141;DHT22;9196;49.194;12.526;2023-08-08T04:40:06;12.40;99.90
18141;DHT22;9196;49.194;12.526;2023-08-08T04:42:34;12.40;99.90
18141;DHT22;9196;49.194;12.526;2023-08-08T04:45:01;12.50;99.90
18141;DHT22;9196;49.194;12.526;2023-08-08T04:47:28;12.40;99.90
18141;DHT22;9196;49.194;12.526;2023-08-08T04:49:56;12.40;99.90
18141;DHT22;9196;49.194;12.526;2023-08-08T04:52:23;12.40;99.90
18141;DHT22;9196;49.194;12.526;2023-08-08T04:54:49;12.50;99.90
18141;DHT22;9196;49.194;12.526;2023-08-08T04:57:16;12.40;99.90
18141;DHT22;9196;49.194;12.526;2023-08-08T04:59:43;12.40;99.90
18141;DHT22;9196;49.194;12.526;2023-08-08T05:02:10;12.50;99.90
18141;DHT22;9196;49.194;12.526;2023-08-08T05:04:37;12.50;99.90
18141;DHT22;9196;49.194;12.526;2023-08-08T05:07:05;12.50;99.90
18141;DHT22;9196;49.194;12.526;2023-08-08T05:09:32;12.50;99.90
18141;DHT22;9196;49.194;12.526;2023-08-08T05:11:58;12.50;99.90
18141;DHT22;9196;49.194;12.526;2023-08-08T05:14:25;12.60;99.90
18141;DHT22;9196;49.194;12.526;2023-08-08T05:16:52;12.60;99.90
18141;DHT22;9196;49.194;12.526;2023-08-08T05:19:19;12.60;99.90
18141;DHT22;9196;49.194;12.526;2023-08-08T05:21:46;12.70;99.90
18141;DHT22;9196;49.194;12.526;2023-08-08T05:24:14;12.70;99.90
18141;DHT22;9196;49.194;12.526;2023-08-08T05:26:41;12.50;99.90
18141;DHT22;9196;49.194;12.526;2023-08-08T05:29:07;12.60;99.90
18141;DHT22;9196;49.194;12.526;2023-08-08T05:31:34;12.60;99.90
18141;DHT22;9196;49.194;12.526;2023-08-08T05:34:01;12.60;99.90
18141;DHT22;9196;49.194;12.526;2023-08-08T05:36:28;12.70;99.90
18141;DHT22;9196;49.194;12.526;2023-08-08T05:38:54;12.70;99.90
18141;DHT22;9196;49.194;12.526;2023-08-08T05:41:22;12.70;99.90
18141;DHT22;9196;49.194;12.526;2023-08-08T05:43:50;12.80;99.90
18141;DHT22;9196;49.194;12.526;2023-08-08T05:46:17;12.80;99.90
18141;DHT22;9196;49.194;12.526;2023-08-08T05:48:44;12.80;99.90
18141;DHT22;9196;49.194;12.526;2023-08-08T05:51:12;12.80;99.90
18141;DHT22;9196;49.194;12.526;2023-08-08T05:53:38;12.90;99.90
18141;DHT22;9196;49.194;12.526;2023-08-08T05:56:05;12.90;99.90
18141;DHT22;9196;49.194;12.526;2023-08-08T05:58:33;13.00;99.90
18141;DHT22;9196;49.194;12.526;2023-08-08T06:01:02;13.10;99.90
18141;DHT22;9196;49.194;12.526;2023-08-08T06:03:31;13.20;99.90
18141;DHT22;9196;49.194;12.526;2023-08-08T06:05:58;13.30;99.90
18141;DHT22;9196;49.194;12.526;2023-08-08T06:08:25;13.30;99.90
18141;DHT22;9196;49.194;12.526;2023-08-08T06:10:52;13.30;99.90
18141;DHT22;9196;49.194;12.526;2023-08-08T06:13:18;13.30;99.90
18141;DHT22;9196;49.194;12.526;2023-08-08T06:15:47;13.30;99.90
18141;DHT22;9196;49.194;12.526;2023-08-08T06:18:13;13.30;99.90
18141;DHT22;9196;49.194;12.526;2023-08-08T06:20:40;13.30;99.90
18141;DHT22;9196;49.194;12.526;2023-08-08T06:23:07;13.30;99.90
18141;DHT22;9196;49.194;12.526;2023-08-08T06:25:34;13.30;99.90
18141;DHT22;9196;49.194;12.526;2023-08-08T06:28:01;13.40;99.90
18141;DHT22;9196;49.194;12.526;2023-08-08T06:30:28;13.50;99.90
18141;DHT22;9196;49.194;12.526;2023-08-08T06:32:56;13.60;99.90
18141;DHT22;9196;49.194;12.526;2023-08-08T06:35:23;13.80;99.90
18141;DHT22;9196;49.194;12.526;2023-08-08T06:37:50;13.90;99.90
18141;DHT22;9196;49.194;12.526;2023-08-08T06:40:17;14.10;99.90
18141;DHT22;9196;49.194;12.526;2023-08-08T06:42:44;14.20;99.90
18141;DHT22;9196;49.194;12.526;2023-08-08T06:45:10;14.30;99.90
18141;DHT22;9196;49.194;12.526;2023-08-08T06:47:37;14.30;99.90
18141;DHT22;9196;49.194;12.526;2023-08-08T06:50:07;14.50;99.90
18141;DHT22;9196;49.194;12.526;2023-08-08T06:52:34;14.60;99.90
18141;DHT22;9196;49.194;12.526;2023-08-08T06:55:01;14.70;99.90
18141;DHT22;9196;49.194;12.526;2023-08-08T06:57:26;14.70;99.90
18141;DHT22;9196;49.194;12.526;2023-08-08T06:59:53;14.80;99.90
18141;DHT22;9196;49.194;12.526;2023-08-08T07:02:20;14.90;99.90
18141;DHT22;9196;49.194;12.526;2023-08-08T07:04:47;14.90;99.90
18141;DHT22;9196;49.194;12.526;2023-08-08T07:07:15;14.90;99.90
18141;DHT22;9196;49.194;12.526;2023-08-08T07:09:42;15.10;99.90
18141;DHT22;9196;49.194;12.526;2023-08-08T07:12:09;15.20;99.90
18141;DHT22;9196;49.194;12.526;2023-08-08T07:14:36;15.20;99.90
18141;DHT22;9196;49.194;12.526;2023-08-08T07:17:03;15.30;99.90
18141;DHT22;9196;49.194;12.526;2023-08-08T07:19:30;15.30;99.90
18141;DHT22;9196;49.194;12.526;2023-08-08T07:21:57;15.50;99.90
18141;DHT22;9196;49.194;12.526;2023-08-08T07:24:25;15.60;99.90
18141;DHT22;9196;49.194;12.526;2023-08-08T07:26:54;15.60;99.90
18141;DHT22;9196;49.194;12.526;2023-08-08T07:29:21;15.60;99.90
18141;DHT22;9196;49.194;12.526;2023-08-08T07:31:47;15.70;99.90
18141;DHT22;9196;49.194;12.526;2023-08-08T07:34:14;15.80;99.90
18141;DHT22;9196;49.194;12.526;2023-08-08T07:36:41;15.80;99.90
18141;DHT22;9196;49.194;12.526;2023-08-08T07:39:08;15.70;99.90
18141;DHT22;9196;49.194;12.526;2023-08-08T07:41:37;15.60;99.90
18141;DHT22;9196;49.194;12.526;2023-08-08T07:44:04;15.40;99.90
18141;DHT22;9196;49.194;12.526;2023-08-08T07:46:31;15.30;99.90
18141;DHT22;9196;49.194;12.526;2023-08-08T07:48:58;15.40;99.90
18141;DHT22;9196;49.194;12.526;2023-08-08T07:51:29;15.60;99.90
18141;DHT22;9196;49.194;12.526;2023-08-08T07:53:56;15.60;99.90
18141;DHT22;9196;49.194;12.526;2023-08-08T07:56:23;15.60;99.90
18141;DHT22;9196;49.194;12.526;2023-08-08T07:58:51;15.60;99.90
18141;DHT22;9196;49.194;12.526;2023-08-08T08:01:18;15.70;99.90
18141;DHT22;9196;49.194;12.526;2023-08-08T08:03:45;16.00;99.90
18141;DHT22;9196;49.194;12.526;2023-08-08T08:06:12;16.20;99.90
18141;DHT22;9196;49.194;12.526;2023-08-08T08:08:39;16.50;99.90
18141;DHT22;9196;49.194;12.526;2023-08-08T08:11:05;16.60;99.90
18141;DHT22;9196;49.194;12.526;2023-08-08T08:13:32;16.60;99.90
18141;DHT22;9196;49.194;12.526;2023-08-08T08:16:00;16.50;99.90
18141;DHT22;9196;49.194;12.526;2023-08-08T08:18:27;16.10;99.90
18141;DHT22;9196;49.194;12.526;2023-08-08T08:20:55;15.90;99.90
18141;DHT22;9196;49.194;12.526;2023-08-08T08:23:22;15.80;99.90
18141;DHT22;9196;49.194;12.526;2023-08-08T08:25:49;15.80;99.90
18141;DHT22;9196;49.194;12.526;2023-08-08T08:28:16;16.00;99.90
18141;DHT22;9196;49.194;12.526;2023-08-08T08:30:43;16.30;99.90
18141;DHT22;9196;49.194;12.526;2023-08-08T08:33:11;16.40;99.90
18141;DHT22;9196;49.194;12.526;2023-08-08T08:35:38;16.40;99.90
18141;DHT22;9196;49.194;12.526;2023-08-08T08:38:05;16.60;99.90
18141;DHT22;9196;49.194;12.526;2023-08-08T08:40:36;16.70;99.90
18141;DHT22;9196;49.194;12.526;2023-08-08T08:43:06;16.90;99.90
18141;DHT22;9196;49.194;12.526;2023-08-08T08:45:36;16.90;99.90
18141;DHT22;9196;49.194;12.526;2023-08-08T08:48:04;16.90;99.90
18141;DHT22;9196;49.194;12.526;2023-08-08T08:50:34;16.80;99.90
18141;DHT22;9196;49.194;12.526;2023-08-08T08:53:01;16.90;99.90
18141;DHT22;9196;49.194;12.526;2023-08-08T08:55:28;16.80;99.90
18141;DHT22;9196;49.194;12.526;2023-08-08T08:57:55;16.80;99.90
18141;DHT22;9196;49.194;12.526;2023-08-08T09:00:22;16.70;99.90
18141;DHT22;9196;49.194;12.526;2023-08-08T09:02:50;16.60;99.90
18141;DHT22;9196;49.194;12.526;2023-08-08T09:05:18;16.60;99.90
18141;DHT22;9196;49.194;12.526;2023-08-08T09:07:49;16.70;99.90
18141;DHT22;9196;49.194;12.526;2023-08-08T09:10:17;16.70;99.90
18141;DHT22;9196;49.194;12.526;2023-08-08T09:12:45;16.50;99.90
18141;DHT22;9196;49.194;12.526;2023-08-08T09:15:12;16.40;99.90
18141;DHT22;9196;49.194;12.526;2023-08-08T09:17:41;16.30;99.90
18141;DHT22;9196;49.194;12.526;2023-08-08T09:20:11;16.20;99.90
18141;DHT22;9196;49.194;12.526;2023-08-08T09:22:38;16.50;99.90
18141;DHT22;9196;49.194;12.526;2023-08-08T09:25:07;16.90;99.90
18141;DHT22;9196;49.194;12.526;2023-08-08T09:27:34;17.30;99.90
18141;DHT22;9196;49.194;12.526;2023-08-08T09:30:01;17.50;99.90
18141;DHT22;9196;49.194;12.526;2023-08-08T09:32:29;17.60;99.90
18141;DHT22;9196;49.194;12.526;2023-08-08T09:34:57;17.60;99.90
18141;DHT22;9196;49.194;12.526;2023-08-08T09:37:23;17.70;99.90
18141;DHT22;9196;49.194;12.526;2023-08-08T09:39:56;17.90;99.90
18141;DHT22;9196;49.194;12.526;2023-08-08T09:42:26;18.00;99.90
18141;DHT22;9196;49.194;12.526;2023-08-08T09:44:53;18.10;99.90
18141;DHT22;9196;49.194;12.526;2023-08-08T09:47:21;18.10;99.90
18141;DHT22;9196;49.194;12.526;2023-08-08T09:49:48;17.80;99.90
18141;DHT22;9196;49.194;12.526;2023-08-08T09:52:15;17.70;99.90
18141;DHT22;9196;49.194;12.526;2023-08-08T09:54:42;17.80;99.90
18141;DHT22;9196;49.194;12.526;2023-08-08T09:57:10;17.80;99.90
18141;DHT22;9196;49.194;12.526;2023-08-08T09:59:38;17.70;99.90
18141;DHT22;9196;49.194;12.526;2023-08-08T10:02:08;17.60;99.90
18141;DHT22;9196;49.194;12.526;2023-08-08T10:04:38;17.50;99.90
18141;DHT22;9196;49.194;12.526;2023-08-08T10:07:05;17.50;99.90
18141;DHT22;9196;49.194;12.526;2023-08-08T10:09:31;17.50;99.90
18141;DHT22;9196;49.194;12.526;2023-08-08T10:11:59;17.60;99.90
18141;DHT22;9196;49.194;12.526;2023-08-08T10:14:29;17.80;99.90
18141;DHT22;9196;49.194;12.526;2023-08-08T10:16:58;18.20;99.90
18141;DHT22;9196;49.194;12.526;2023-08-08T10:19:25;18.40;99.90
18141;DHT22;9196;49.194;12.526;2023-08-08T10:21:57;18.50;99.90
18141;DHT22;9196;49.194;12.526;2023-08-08T10:24:24;18.20;99.90
18141;DHT22;9196;49.194;12.526;2023-08-08T10:26:52;18.10;99.90
18141;DHT22;9196;49.194;12.526;2023-08-08T10:29:20;17.90;99.90
18141;DHT22;9196;49.194;12.526;2023-08-08T10:31:51;17.80;99.90
18141;DHT22;9196;49.194;12.526;2023-08-08T10:34:20;17.90;99.90
18141;DHT22;9196;49.194;12.526;2023-08-08T10:36:51;18.20;99.90
18141;DHT22;9196;49.194;12.526;2023-08-08T10:39:20;18.50;99.90
18141;DHT22;9196;49.194;12.526;2023-08-08T10:41:49;18.50;99.90
18141;DHT22;9196;49.194;12.526;2023-08-08T10:44:23;18.50;99.90
18141;DHT22;9196;49.194;12.526;2023-08-08T10:46:51;18.40;99.90
18141;DHT22;9196;49.194;12.526;2023-08-08T10:49:20;18.40;99.90
18141;DHT22;9196;49.194;12.526;2023-08-08T10:51:48;18.40;99.90
18141;DHT22;9196;49.194;12.526;2023-08-08T10:54:17;18.40;99.90
18141;DHT22;9196;49.194;12.526;2023-08-08T10:56:49;18.60;99.90
18141;DHT22;9196;49.194;12.526;2023-08-08T10:59:18;18.60;99.90
18141;DHT22;9196;49.194;12.526;2023-08-08T11:01:45;18.60;99.90
18141;DHT22;9196;49.194;12.526;2023-08-08T11:04:13;18.80;99.90
18141;DHT22;9196;49.194;12.526;2023-08-08T11:06:41;18.90;99.90
18141;DHT22;9196;49.194;12.526;2023-08-08T11:09:08;19.10;99.90
18141;DHT22;9196;49.194;12.526;2023-08-08T11:11:38;19.10;99.90
18141;DHT22;9196;49.194;12.526;2023-08-08T11:14:10;19.00;99.90
18141;DHT22;9196;49.194;12.526;2023-08-08T11:16:37;19.00;99.90
18141;DHT22;9196;49.194;12.526;2023-08-08T11:19:04;19.00;99.90
18141;DHT22;9196;49.194;12.526;2023-08-08T11:21:34;19.10;99.90
18141;DHT22;9196;49.194;12.526;2023-08-08T11:24:04;19.20;99.90
18141;DHT22;9196;49.194;12.526;2023-08-08T11:26:32;19.40;99.90
18141;DHT22;9196;49.194;12.526;2023-08-08T11:28:59;19.20;99.20
18141;DHT22;9196;49.194;12.526;2023-08-08T11:31:26;19.20;99.00
18141;DHT22;9196;49.194;12.526;2023-08-08T11:33:54;19.30;99.10
18141;DHT22;9196;49.194;12.526;2023-08-08T11:36:21;19.50;99.90
18141;DHT22;9196;49.194;12.526;2023-08-08T11:38:49;19.70;95.70
18141;DHT22;9196;49.194;12.526;2023-08-08T11:41:21;19.80;96.70
18141;DHT22;9196;49.194;12.526;2023-08-08T11:43:50;20.00;99.50
18141;DHT22;9196;49.194;12.526;2023-08-08T11:46:17;20.10;98.40
18141;DHT22;9196;49.194;12.526;2023-08-08T11:48:46;20.20;96.90
18141;DHT22;9196;49.194;12.526;2023-08-08T11:51:15;20.30;97.40
18141;DHT22;9196;49.194;12.526;2023-08-08T11:53:48;20.10;94.90
18141;DHT22;9196;49.194;12.526;2023-08-08T11:56:17;20.00;95.20
18141;DHT22;9196;49.194;12.526;2023-08-08T11:58:44;19.90;94.90
18141;DHT22;9196;49.194;12.526;2023-08-08T12:01:11;19.90;95.40
18141;DHT22;9196;49.194;12.526;2023-08-08T12:03:39;19.90;94.60
18141;DHT22;9196;49.194;12.526;2023-08-08T12:06:11;19.90;94.90
18141;DHT22;9196;49.194;12.526;2023-08-08T12:08:41;19.90;94.60
18141;DHT22;9196;49.194;12.526;2023-08-08T12:11:09;20.10;96.10
18141;DHT22;9196;49.194;12.526;2023-08-08T12:13:39;20.30;95.40
18141;DHT22;9196;49.194;12.526;2023-08-08T12:16:06;20.30;95.90
18141;DHT22;9196;49.194;12.526;2023-08-08T12:18:35;20.40;94.60
18141;DHT22;9196;49.194;12.526;2023-08-08T12:21:03;20.50;94.30
18141;DHT22;9196;49.194;12.526;2023-08-08T12:23:30;20.60;93.90
18141;DHT22;9196;49.194;12.526;2023-08-08T12:25:57;20.40;91.60
18141;DHT22;9196;49.194;12.526;2023-08-08T12:28:24;20.40;93.20
18141;DHT22;9196;49.194;12.526;2023-08-08T12:30:53;20.30;92.50
18141;DHT22;9196;49.194;12.526;2023-08-08T12:33:19;20.20;92.80
18141;DHT22;9196;49.194;12.526;2023-08-08T12:35:47;20.00;92.80
18141;DHT22;9196;49.194;12.526;2023-08-08T12:38:14;20.00;94.30
18141;DHT22;9196;49.194;12.526;2023-08-08T12:40:41;20.00;94.40
18141;DHT22;9196;49.194;12.526;2023-08-08T12:43:09;20.20;95.20
18141;DHT22;9196;49.194;12.526;2023-08-08T12:45:38;20.30;96.10
18141;DHT22;9196;49.194;12.526;2023-08-08T12:48:07;20.50;93.30
18141;DHT22;9196;49.194;12.526;2023-08-08T12:50:33;20.50;93.60
18141;DHT22;9196;49.194;12.526;2023-08-08T12:53:00;20.50;94.90
18141;DHT22;9196;49.194;12.526;2023-08-08T12:55:27;20.60;94.50
18141;DHT22;9196;49.194;12.526;2023-08-08T12:57:54;20.60;94.80
18141;DHT22;9196;49.194;12.526;2023-08-08T13:00:21;20.80;94.10
18141;DHT22;9196;49.194;12.526;2023-08-08T13:02:49;20.80;92.40
18141;DHT22;9196;49.194;12.526;2023-08-08T13:05:17;20.90;91.90
18141;DHT22;9196;49.194;12.526;2023-08-08T13:07:44;20.80;91.80
18141;DHT22;9196;49.194;12.526;2023-08-08T13:10:10;20.90;93.10
18141;DHT22;9196;49.194;12.526;2023-08-08T13:12:37;21.00;93.20
18141;DHT22;9196;49.194;12.526;2023-08-08T13:15:05;21.10;93.70
18141;DHT22;9196;49.194;12.526;2023-08-08T13:17:32;21.20;92.00
18141;DHT22;9196;49.194;12.526;2023-08-08T13:19:59;21.20;90.90
18141;DHT22;9196;49.194;12.526;2023-08-08T13:22:27;21.10;91.30
18141;DHT22;9196;49.194;12.526;2023-08-08T13:24:54;21.00;91.70
18141;DHT22;9196;49.194;12.526;2023-08-08T13:27:21;21.20;94.20
18141;DHT22;9196;49.194;12.526;2023-08-08T13:29:48;21.20;86.80
18141;DHT22;9196;49.194;12.526;2023-08-08T13:32:14;21.10;86.60
18141;DHT22;9196;49.194;12.526;2023-08-08T13:34:41;20.90;87.20
18141;DHT22;9196;49.194;12.526;2023-08-08T13:37:08;21.00;89.90
18141;DHT22;9196;49.194;12.526;2023-08-08T13:39:36;21.10;89.20
18141;DHT22;9196;49.194;12.526;2023-08-08T13:42:03;21.10;86.90
18141;DHT22;9196;49.194;12.526;2023-08-08T13:44:30;21.00;85.30
18141;DHT22;9196;49.194;12.526;2023-08-08T13:46:57;21.30;89.10
18141;DHT22;9196;49.194;12.526;2023-08-08T13:49:24;21.60;86.70
18141;DHT22;9196;49.194;12.526;2023-08-08T13:51:52;21.80;84.10
18141;DHT22;9196;49.194;12.526;2023-08-08T13:54:20;22.00;82.30
18141;DHT22;9196;49.194;12.526;2023-08-08T13:56:48;22.00;82.80
18141;DHT22;9196;49.194;12.526;2023-08-08T13:59:15;22.00;80.20
18141;DHT22;9196;49.194;12.526;2023-08-08T14:01:42;22.20;81.50
18141;DHT22;9196;49.194;12.526;2023-08-08T14:04:08;22.40;85.50
18141;DHT22;9196;49.194;12.526;2023-08-08T14:06:35;22.60;83.40
18141;DHT22;9196;49.194;12.526;2023-08-08T14:09:03;22.70;83.70
18141;DHT22;9196;49.194;12.526;2023-08-08T14:11:30;22.80;81.40
18141;DHT22;9196;49.194;12.526;2023-08-08T14:13:58;22.60;79.10
18141;DHT22;9196;49.194;12.526;2023-08-08T14:16:25;22.20;79.00
18141;DHT22;9196;49.194;12.526;2023-08-08T14:18:52;22.20;77.00
18141;DHT22;9196;49.194;12.526;2023-08-08T14:21:19;22.10;75.30
18141;DHT22;9196;49.194;12.526;2023-08-08T14:23:46;22.00;77.30
18141;DHT22;9196;49.194;12.526;2023-08-08T14:26:13;22.30;81.60
18141;DHT22;9196;49.194;12.526;2023-08-08T14:28:40;22.40;76.30
18141;DHT22;9196;49.194;12.526;2023-08-08T14:31:08;22.40;76.70
18141;DHT22;9196;49.194;12.526;2023-08-08T14:33:35;22.50;77.30
18141;DHT22;9196;49.194;12.526;2023-08-08T14:36:01;22.50;78.20
18141;DHT22;9196;49.194;12.526;2023-08-08T14:38:34;22.50;78.60
18141;DHT22;9196;49.194;12.526;2023-08-08T14:41:01;22.40;78.00
18141;DHT22;9196;49.194;12.526;2023-08-08T14:43:28;22.20;80.10
18141;DHT22;9196;49.194;12.526;2023-08-08T14:45:55;22.00;79.30
18141;DHT22;9196;49.194;12.526;2023-08-08T14:48:23;21.80;77.80
18141;DHT22;9196;49.194;12.526;2023-08-08T14:50:50;21.80;77.10
18141;DHT22;9196;49.194;12.526;2023-08-08T14:53:16;21.80;75.60
18141;DHT22;9196;49.194;12.526;2023-08-08T14:55:43;22.00;77.10
18141;DHT22;9196;49.194;12.526;2023-08-08T14:58:16;22.30;79.00
18141;DHT22;9196;49.194;12.526;2023-08-08T15:01:01;22.40;74.60
18141;DHT22;9196;49.194;12.526;2023-08-08T15:03:30;22.50;72.00
18141;DHT22;9196;49.194;12.526;2023-08-08T15:05:57;22.40;68.80
18141;DHT22;9196;49.194;12.526;2023-08-08T15:08:23;22.50;71.40
18141;DHT22;9196;49.194;12.526;2023-08-08T15:10:50;22.50;66.60
18141;DHT22;9196;49.194;12.526;2023-08-08T15:13:17;22.30;65.70
18141;DHT22;9196;49.194;12.526;2023-08-08T15:15:44;22.40;67.50
18141;DHT22;9196;49.194;12.526;2023-08-08T15:18:11;22.20;68.30
18141;DHT22;9196;49.194;12.526;2023-08-08T15:20:39;22.20;67.60
18141;DHT22;9196;49.194;12.526;2023-08-08T15:23:06;22.20;67.60
18141;DHT22;9196;49.194;12.526;2023-08-08T15:25:35;22.20;68.90
18141;DHT22;9196;49.194;12.526;2023-08-08T15:28:03;22.20;68.90
18141;DHT22;9196;49.194;12.526;2023-08-08T15:30:30;22.20;67.40
18141;DHT22;9196;49.194;12.526;2023-08-08T15:32:57;22.20;68.00